createdAt,value
2022-11-22T00:01:19.861Z,-2.30
2022-11-22T00:03:48.005Z,-2.30
2022-11-22T00:06:16.361Z,-2.30
2022-11-22T00:08:44.734Z,-2.20
2022-11-22T00:11:12.837Z,-2.20
2022-11-22T00:13:42.394Z,-2.20
2022-11-22T00:16:10.573Z,-2.20
2022-11-22T00:18:38.743Z,-2.10
2022-11-22T00:21:08.251Z,-2.20
2022-11-22T00:23:36.444Z,-2.20
2022-11-22T00:26:04.609Z,-2.20
2022-11-22T00:28:32.777Z,-2.30
2022-11-22T00:31:02.385Z,-2.30
2022-11-22T00:33:30.521Z,-2.40
2022-11-22T00:35:58.648Z,-2.40
2022-11-22T00:38:26.815Z,-2.30
2022-11-22T00:40:54.902Z,-2.40
2022-11-22T00:43:25.723Z,-2.40
2022-11-22T00:45:54.309Z,-2.40
2022-11-22T00:48:23.746Z,-2.40
2022-11-22T00:50:51.849Z,-2.40
2022-11-22T00:53:20.122Z,-2.40
2022-11-22T00:55:48.429Z,-2.40
2022-11-22T00:58:16.774Z,-2.40
2022-11-22T01:00:45.048Z,-2.30
2022-11-22T01:03:15.890Z,-2.30
2022-11-22T01:05:45.433Z,-2.30
2022-11-22T01:08:13.542Z,-2.30
2022-11-22T01:10:42.105Z,-2.20
2022-11-22T01:13:12.732Z,-2.20
2022-11-22T01:15:40.986Z,-2.20
2022-11-22T01:18:09.077Z,-2.20
2022-11-22T01:20:37.230Z,-2.20
2022-11-22T01:23:06.698Z,-2.20
2022-11-22T01:25:34.928Z,-2.20
2022-11-22T01:28:03.218Z,-2.20
2022-11-22T01:30:31.513Z,-2.20
2022-11-22T01:33:00.101Z,-2.20
2022-11-22T01:35:28.291Z,-2.20
2022-11-22T01:37:56.428Z,-2.20
2022-11-22T01:40:26.127Z,-2.20
2022-11-22T01:42:58.079Z,-2.30
2022-11-22T01:45:48.291Z,-2.30
2022-11-22T01:48:24.941Z,-2.30
2022-11-22T01:50:57.225Z,-2.20
2022-11-22T01:53:29.960Z,-2.20
2022-11-22T01:56:00.646Z,-2.20
2022-11-22T01:58:32.352Z,-2.20
2022-11-22T02:01:01.508Z,-2.20
2022-11-22T02:03:32.263Z,-2.20
2022-11-22T02:06:01.247Z,-2.30
2022-11-22T02:08:35.061Z,-2.30
2022-11-22T02:11:09.514Z,-2.30
2022-11-22T02:13:40.772Z,-2.30
2022-11-22T02:16:10.482Z,-2.20
2022-11-22T02:18:39.417Z,-2.20
2022-11-22T02:21:08.810Z,-2.20
2022-11-22T02:23:48.657Z,-2.20
2022-11-22T02:26:19.388Z,-2.20
2022-11-22T02:28:47.976Z,-2.10
2022-11-22T02:31:36.723Z,-2.10
2022-11-22T02:34:05.075Z,-2.10
2022-11-22T02:36:37.209Z,-2.10
2022-11-22T02:39:06.831Z,-2.10
2022-11-22T02:41:37.955Z,-2.20
2022-11-22T02:44:07.877Z,-2.20
2022-11-22T02:46:35.990Z,-2.20
2022-11-22T02:49:04.106Z,-2.20
2022-11-22T02:51:32.240Z,-2.20
2022-11-22T02:54:00.363Z,-2.20
2022-11-22T02:56:28.543Z,-2.20
2022-11-22T02:58:58.133Z,-2.20
2022-11-22T03:01:26.405Z,-2.20
2022-11-22T03:03:54.473Z,-2.20
2022-11-22T03:06:22.721Z,-2.20
2022-11-22T03:08:56.180Z,-2.10
2022-11-22T03:11:25.383Z,-2.20
2022-11-22T03:13:53.578Z,-2.20
2022-11-22T03:16:23.060Z,-2.20
2022-11-22T03:18:51.220Z,-2.10
2022-11-22T03:21:19.301Z,-2.20
2022-11-22T03:23:49.533Z,-2.10
2022-11-22T03:26:18.141Z,-2.20
2022-11-22T03:28:48.989Z,-2.10
2022-11-22T03:31:17.170Z,-2.10
2022-11-22T03:33:46.644Z,-2.20
2022-11-22T03:36:14.766Z,-2.10
2022-11-22T03:38:42.884Z,-2.10
2022-11-22T03:41:11.081Z,-2.10
2022-11-22T03:43:39.377Z,-2.10
2022-11-22T03:46:07.600Z,-2.10
2022-11-22T03:48:35.727Z,-2.10
2022-11-22T03:51:08.612Z,-2.10
2022-11-22T03:53:36.700Z,-2.10
2022-11-22T03:56:05.332Z,-2.20
2022-11-22T03:58:34.167Z,-2.20
2022-11-22T04:01:02.799Z,-2.20
2022-11-22T04:03:31.034Z,-2.20
2022-11-22T04:06:01.659Z,-2.20
2022-11-22T04:08:33.961Z,-2.10
2022-11-22T04:11:02.175Z,-2.20
2022-11-22T04:13:44.119Z,-2.10
2022-11-22T04:16:12.227Z,-2.10
2022-11-22T04:18:40.475Z,-2.10
2022-11-22T04:21:25.841Z,-2.10
2022-11-22T04:24:09.216Z,-2.10
2022-11-22T04:26:37.471Z,-2.10
2022-11-22T04:29:10.409Z,-2.00
2022-11-22T04:31:56.011Z,-2.10
2022-11-22T04:34:24.796Z,-2.00
2022-11-22T04:36:53.242Z,-2.00
2022-11-22T04:39:23.291Z,-2.00
2022-11-22T04:42:13.745Z,-2.00
2022-11-22T04:44:41.836Z,-2.10
2022-11-22T04:47:10.307Z,-2.10
2022-11-22T04:49:38.599Z,-2.10
2022-11-22T04:52:24.431Z,-2.00
2022-11-22T04:54:53.931Z,-2.00
2022-11-22T04:57:22.072Z,-1.90
2022-11-22T04:59:50.238Z,-2.00
2022-11-22T05:02:18.321Z,-1.90
2022-11-22T05:04:50.596Z,-1.90
2022-11-22T05:07:18.892Z,-1.90
2022-11-22T05:09:47.066Z,-1.90
2022-11-22T05:12:16.577Z,-1.90
2022-11-22T05:14:44.716Z,-1.80
2022-11-22T05:17:13.627Z,-1.80
2022-11-22T05:19:46.422Z,-1.80
2022-11-22T05:22:17.732Z,-1.80
2022-11-22T05:24:44.829Z,-1.80
2022-11-22T05:27:12.913Z,-1.80
2022-11-22T05:29:42.426Z,-1.70
2022-11-22T05:32:10.561Z,-1.70
2022-11-22T05:34:38.711Z,-1.70
2022-11-22T05:37:06.924Z,-1.70
2022-11-22T05:39:35.184Z,-1.60
2022-11-22T05:42:05.866Z,-1.60
2022-11-22T05:44:34.076Z,-1.60
2022-11-22T05:47:03.611Z,-1.60
2022-11-22T05:49:31.983Z,-1.60
2022-11-22T05:52:00.578Z,-1.60
2022-11-22T05:54:28.816Z,-1.50
2022-11-22T05:56:57.292Z,-1.50
2022-11-22T05:59:25.439Z,-1.50
2022-11-22T06:01:53.544Z,-1.50
2022-11-22T06:04:23.379Z,-1.60
2022-11-22T06:06:51.455Z,-1.50
2022-11-22T06:09:22.830Z,-1.50
2022-11-22T06:11:50.901Z,-1.50
2022-11-22T06:14:18.993Z,-1.50
2022-11-22T06:16:47.136Z,-1.50
2022-11-22T06:19:15.341Z,-1.50
2022-11-22T06:21:45.385Z,-1.50
2022-11-22T06:24:13.511Z,-1.50
2022-11-22T06:26:43.845Z,-1.40
2022-11-22T06:29:12.132Z,-1.40
2022-11-22T06:31:40.337Z,-1.40
2022-11-22T06:34:13.562Z,-1.40
2022-11-22T06:36:41.753Z,-1.40
2022-11-22T06:39:11.381Z,-1.40
2022-11-22T06:41:39.952Z,-1.30
2022-11-22T06:44:10.205Z,-1.30
2022-11-22T06:46:38.855Z,-1.40
2022-11-22T06:49:07.128Z,-1.30
2022-11-22T06:51:35.276Z,-1.30
2022-11-22T06:54:03.530Z,-1.20
2022-11-22T06:56:36.816Z,-1.20
2022-11-22T06:59:07.298Z,-1.20
2022-11-22T07:01:37.100Z,-1.20
2022-11-22T07:04:06.108Z,-1.20
2022-11-22T07:06:35.951Z,-1.10
2022-11-22T07:09:06.360Z,-1.10
2022-11-22T07:11:36.717Z,-1.10
2022-11-22T07:14:08.908Z,-1.10
2022-11-22T07:16:38.257Z,-1.20
2022-11-22T07:19:07.355Z,-1.10
2022-11-22T07:21:37.131Z,-1.00
2022-11-22T07:24:07.210Z,-1.00
2022-11-22T07:26:36.705Z,-1.00
2022-11-22T07:29:05.150Z,-0.90
2022-11-22T07:31:33.364Z,-0.90
2022-11-22T07:34:01.517Z,-1.00
2022-11-22T07:36:30.412Z,-0.90
2022-11-22T07:38:58.687Z,-1.00
2022-11-22T07:41:26.842Z,-1.00
2022-11-22T07:43:56.418Z,-0.90
2022-11-22T07:46:29.570Z,-0.90
2022-11-22T07:48:58.392Z,-0.90
2022-11-22T07:51:26.532Z,-0.80
2022-11-22T07:53:57.898Z,-0.90
2022-11-22T07:56:26.095Z,-1.00
2022-11-22T07:58:54.405Z,-0.90
2022-11-22T08:01:24.009Z,-0.80
2022-11-22T08:03:52.214Z,-0.70
2022-11-22T08:06:20.287Z,-0.70
2022-11-22T08:08:49.528Z,-0.60
2022-11-22T08:11:17.798Z,-0.70
2022-11-22T08:13:45.918Z,-0.70
2022-11-22T08:16:16.270Z,-0.70
2022-11-22T08:18:49.454Z,-0.70
2022-11-22T08:21:19.237Z,-0.70
2022-11-22T08:23:48.622Z,-0.70
2022-11-22T08:26:21.045Z,-0.70
2022-11-22T08:28:49.179Z,-0.60
2022-11-22T08:31:19.771Z,-0.50
2022-11-22T08:33:49.846Z,-0.60
2022-11-22T08:36:18.121Z,-0.60
2022-11-22T08:38:46.723Z,-0.60
2022-11-22T08:41:15.354Z,-0.60
2022-11-22T08:43:43.512Z,-0.60
2022-11-22T08:46:12.016Z,-0.60
2022-11-22T08:48:40.158Z,-0.50
2022-11-22T08:51:11.486Z,-0.50
2022-11-22T08:53:41.504Z,-0.40
2022-11-22T08:56:12.399Z,-0.60
2022-11-22T08:58:40.747Z,-0.50
2022-11-22T09:01:11.376Z,-0.50
2022-11-22T09:03:39.924Z,-0.50
2022-11-22T09:09:22.231Z,-0.30
2022-11-22T09:11:47.860Z,-0.20
2022-11-22T09:14:16.145Z,-0.30
2022-11-22T09:16:46.900Z,-0.30
2022-11-22T09:19:15.062Z,-0.20
2022-11-22T09:21:44.795Z,-0.30
2022-11-22T09:24:12.990Z,-0.20
2022-11-22T09:26:41.285Z,-0.20
2022-11-22T09:29:09.424Z,-0.20
2022-11-22T09:31:37.574Z,-0.10
2022-11-22T09:34:05.745Z,0.00
2022-11-22T09:36:34.052Z,0.10
2022-11-22T09:39:03.712Z,0.10
2022-11-22T09:41:58.771Z,0.10
2022-11-22T09:44:35.765Z,0.10
2022-11-22T09:47:09.866Z,0.10
2022-11-22T09:49:51.755Z,0.00
2022-11-22T09:52:26.559Z,0.20
2022-11-22T09:55:00.423Z,0.20
2022-11-22T09:57:34.508Z,0.20
2022-11-22T10:00:06.252Z,0.20
2022-11-22T10:03:01.264Z,0.30
2022-11-22T10:05:39.648Z,0.30
2022-11-22T10:08:18.743Z,0.30
2022-11-22T10:10:53.909Z,0.30
2022-11-22T10:13:26.493Z,0.30
2022-11-22T10:15:59.368Z,0.20
2022-11-22T10:18:35.335Z,0.20
2022-11-22T10:21:03.688Z,0.20
2022-11-22T10:23:34.953Z,0.30
2022-11-22T10:26:13.186Z,0.30
2022-11-22T10:28:49.982Z,0.30
2022-11-22T10:31:21.758Z,0.30
2022-11-22T10:34:00.676Z,0.30
2022-11-22T10:36:37.940Z,0.40
2022-11-22T10:39:24.505Z,0.40
2022-11-22T10:42:11.137Z,0.50
2022-11-22T10:44:52.287Z,0.50
2022-11-22T10:47:34.828Z,0.50
2022-11-22T10:50:09.954Z,0.70
2022-11-22T10:52:47.293Z,0.70
2022-11-22T10:55:38.721Z,0.60
2022-11-22T10:58:15.305Z,0.70
2022-11-22T11:00:46.514Z,0.70
2022-11-22T11:03:24.338Z,0.80
2022-11-22T11:09:36.153Z,0.80
2022-11-22T11:11:39.886Z,0.90
2022-11-22T11:14:18.718Z,0.90
2022-11-22T11:16:47.558Z,1.00
2022-11-22T11:19:19.383Z,1.00
2022-11-22T11:21:52.575Z,0.90
2022-11-22T11:24:20.747Z,1.00
2022-11-22T11:26:56.359Z,0.90
2022-11-22T11:29:41.016Z,1.00
2022-11-22T11:32:12.017Z,1.10
2022-11-22T11:34:42.651Z,1.10
2022-11-22T11:37:22.818Z,1.20
2022-11-22T11:39:51.072Z,1.20
2022-11-22T11:42:28.101Z,1.20
2022-11-22T11:45:27.759Z,1.20
2022-11-22T11:47:55.984Z,1.30
2022-11-22T11:50:26.352Z,1.20
2022-11-22T11:52:56.349Z,1.30
2022-11-22T11:55:24.839Z,1.30
2022-11-22T11:57:54.403Z,1.40
2022-11-22T12:00:27.925Z,1.30
2022-11-22T12:03:01.744Z,1.50
2022-11-22T12:05:31.731Z,1.40
2022-11-22T12:08:01.261Z,1.30
2022-11-22T12:10:32.817Z,1.40
2022-11-22T12:13:06.663Z,1.50
2022-11-22T12:15:47.163Z,1.50
2022-11-22T12:18:34.225Z,1.50
2022-11-22T12:21:13.909Z,1.40
2022-11-22T12:23:51.086Z,1.50
2022-11-22T12:26:20.166Z,1.40
2022-11-22T12:28:49.146Z,1.50
2022-11-22T12:31:29.142Z,1.50
2022-11-22T12:34:01.652Z,1.40
2022-11-22T12:36:45.395Z,1.40
2022-11-22T12:39:17.992Z,1.50
2022-11-22T12:41:48.618Z,1.50
2022-11-22T12:44:19.772Z,1.50
2022-11-22T12:46:53.535Z,1.50
2022-11-22T12:49:30.415Z,1.50
2022-11-22T12:52:05.423Z,1.50
2022-11-22T12:54:43.011Z,1.60
2022-11-22T12:57:19.777Z,1.70
2022-11-22T12:59:56.527Z,1.60
2022-11-22T13:02:33.301Z,1.50
2022-11-22T13:05:05.439Z,1.50
2022-11-22T13:07:52.783Z,1.50
2022-11-22T13:10:31.629Z,1.60
2022-11-22T13:13:01.894Z,1.60
2022-11-22T13:15:35.764Z,1.60
2022-11-22T13:18:10.728Z,1.60
2022-11-22T13:20:46.161Z,1.60
2022-11-22T13:23:30.327Z,1.50
2022-11-22T13:26:11.758Z,1.60
2022-11-22T13:28:48.187Z,1.60
2022-11-22T13:31:19.832Z,1.60
2022-11-22T13:33:57.851Z,1.70
2022-11-22T13:36:38.811Z,1.60
2022-11-22T13:39:11.450Z,1.60
2022-11-22T13:41:44.465Z,1.70
2022-11-22T13:44:46.249Z,1.60
2022-11-22T13:47:36.425Z,1.70
2022-11-22T13:50:52.700Z,1.60
2022-11-22T13:53:30.153Z,1.60
2022-11-22T13:56:09.778Z,1.60
2022-11-22T13:58:54.886Z,1.60
2022-11-22T14:01:57.892Z,1.50
2022-11-22T14:04:44.385Z,1.60
2022-11-22T14:07:35.152Z,1.60
2022-11-22T14:10:08.445Z,1.60
2022-11-22T14:13:07.901Z,1.70
2022-11-22T14:15:52.609Z,1.70
2022-11-22T14:18:44.086Z,1.70
2022-11-22T14:21:18.502Z,1.70
2022-11-22T14:23:59.883Z,1.70
2022-11-22T14:26:34.504Z,1.60
2022-11-22T14:29:27.556Z,1.70
2022-11-22T14:32:00.934Z,1.70
2022-11-22T14:34:30.829Z,1.80
2022-11-22T14:37:56.803Z,1.70
2022-11-22T14:40:35.053Z,1.60
2022-11-22T14:43:23.205Z,1.60
2022-11-22T14:45:53.221Z,1.60
2022-11-22T14:48:23.269Z,1.60
2022-11-22T14:51:01.868Z,1.60
2022-11-22T14:53:35.938Z,1.70
2022-11-22T14:56:17.146Z,1.60
2022-11-22T14:58:58.412Z,1.60
2022-11-22T15:01:58.446Z,1.60
2022-11-22T15:09:14.564Z,1.60
2022-11-22T15:09:24.786Z,1.60
2022-11-22T15:11:07.769Z,1.60
2022-11-22T15:13:50.324Z,1.60
2022-11-22T15:57:33.441Z,1.60
2022-11-22T16:00:10.531Z,1.60
2022-11-22T16:02:48.487Z,1.60
2022-11-22T16:06:10.355Z,1.60
2022-11-22T16:08:16.570Z,1.60
2022-11-22T16:10:50.763Z,1.60
2022-11-22T16:13:30.037Z,1.60
2022-11-22T16:16:27.979Z,1.60
2022-11-22T16:19:20.753Z,1.60
2022-11-22T16:21:58.607Z,1.60
2022-11-22T16:24:28.788Z,1.60
2022-11-22T16:26:58.817Z,1.50
2022-11-22T16:29:32.097Z,1.60
2022-11-22T16:32:06.513Z,1.60
2022-11-22T16:34:34.778Z,1.60
2022-11-22T16:37:19.297Z,1.60
2022-11-22T16:39:47.417Z,1.60
2022-11-22T16:42:15.763Z,1.50
2022-11-22T16:44:44.193Z,1.60
2022-11-22T16:47:18.370Z,1.60
2022-11-22T16:49:47.113Z,1.50
2022-11-22T16:52:18.176Z,1.60
2022-11-22T16:54:46.596Z,1.50
2022-11-22T16:57:16.792Z,1.50
2022-11-22T16:59:47.155Z,1.50
2022-11-22T17:02:17.328Z,1.50
2022-11-22T17:04:46.729Z,1.50
2022-11-22T17:07:17.120Z,1.50
2022-11-22T17:09:45.690Z,1.50
2022-11-22T17:12:15.635Z,1.50
2022-11-22T17:14:44.350Z,1.50
2022-11-22T17:17:12.981Z,1.50
2022-11-22T17:19:57.005Z,1.50
2022-11-22T17:22:26.652Z,1.50
2022-11-22T17:24:54.782Z,1.50
2022-11-22T17:27:25.614Z,1.50
2022-11-22T17:29:56.190Z,1.60
2022-11-22T17:32:24.368Z,1.60
2022-11-22T17:34:52.565Z,1.60
2022-11-22T17:37:20.992Z,1.60
2022-11-22T17:39:53.964Z,1.60
2022-11-22T17:42:23.981Z,1.50
2022-11-22T17:44:52.140Z,1.60
2022-11-22T17:47:20.459Z,1.60
2022-11-22T17:49:48.735Z,1.60
2022-11-22T17:52:17.032Z,1.60
2022-11-22T17:54:45.178Z,1.60
2022-11-22T17:57:14.645Z,1.60
2022-11-22T17:59:43.818Z,1.70
2022-11-22T18:02:12.890Z,1.70
2022-11-22T18:04:42.601Z,1.60
2022-11-22T18:07:10.899Z,1.60
2022-11-22T18:09:39.483Z,1.60
2022-11-22T18:12:07.853Z,1.60
2022-11-22T18:14:37.607Z,1.60
2022-11-22T18:17:06.046Z,1.60
2022-11-22T18:19:34.552Z,1.70
2022-11-22T18:22:02.684Z,1.70
2022-11-22T18:24:30.799Z,1.60
2022-11-22T18:26:58.956Z,1.60
2022-11-22T18:29:41.663Z,1.60
2022-11-22T18:32:12.453Z,1.60
2022-11-22T18:34:41.465Z,1.50
2022-11-22T18:37:09.678Z,1.60
2022-11-22T18:39:39.846Z,1.60
2022-11-22T18:42:11.615Z,1.60
2022-11-22T18:44:39.723Z,1.70
2022-11-22T18:47:08.103Z,1.70
2022-11-22T18:49:38.666Z,1.70
2022-11-22T18:52:07.517Z,1.60
2022-11-22T18:54:36.817Z,1.60
2022-11-22T18:57:05.099Z,1.60
2022-11-22T18:59:33.596Z,1.60
2022-11-22T19:02:01.731Z,1.60
2022-11-22T19:04:30.675Z,1.60
2022-11-22T19:07:00.439Z,1.70
2022-11-22T19:09:28.593Z,1.60
2022-11-22T19:11:58.762Z,1.60
2022-11-22T19:14:28.994Z,1.60
2022-11-22T19:16:57.724Z,1.70
2022-11-22T19:19:25.990Z,1.60
2022-11-22T19:21:54.076Z,1.60
2022-11-22T19:24:23.606Z,1.60
2022-11-22T19:26:51.902Z,1.70
2022-11-22T19:29:22.462Z,1.70
2022-11-22T19:31:50.714Z,1.70
2022-11-22T19:34:19.295Z,1.70
2022-11-22T19:36:47.452Z,1.70
2022-11-22T19:39:17.037Z,1.70
2022-11-22T19:41:46.979Z,1.70
2022-11-22T19:44:16.209Z,1.70
2022-11-22T19:46:44.352Z,1.70
2022-11-22T19:49:13.056Z,1.70
2022-11-22T19:51:41.239Z,1.80
2022-11-22T19:54:09.552Z,1.80
2022-11-22T19:56:39.163Z,1.70
2022-11-22T19:59:15.579Z,1.70
2022-11-22T20:01:44.126Z,1.70
2022-11-22T20:04:14.324Z,1.70
2022-11-22T20:06:47.184Z,1.70
2022-11-22T20:09:18.265Z,1.70
2022-11-22T20:11:46.925Z,1.70
2022-11-22T20:14:16.531Z,1.70
2022-11-22T20:16:44.762Z,1.70
2022-11-22T20:19:13.275Z,1.80
2022-11-22T20:21:41.909Z,1.80
2022-11-22T20:24:10.532Z,1.80
2022-11-22T20:26:41.019Z,1.70
2022-11-22T20:29:12.844Z,1.70
2022-11-22T20:31:44.631Z,1.70
2022-11-22T20:34:13.797Z,1.70
2022-11-22T20:36:42.146Z,1.70
2022-11-22T20:39:11.018Z,1.70
2022-11-22T20:41:39.976Z,1.70
2022-11-22T20:44:08.484Z,1.70
2022-11-22T20:46:38.437Z,1.70
2022-11-22T20:49:10.748Z,1.80
2022-11-22T20:51:40.009Z,1.70
2022-11-22T20:54:09.697Z,1.70
2022-11-22T20:56:38.035Z,1.70
2022-11-22T20:59:06.863Z,1.70
2022-11-22T21:01:35.115Z,1.80
2022-11-22T21:04:03.266Z,1.70
2022-11-22T21:06:34.829Z,1.70
2022-11-22T21:09:03.301Z,1.70
2022-11-22T21:11:32.107Z,1.70
2022-11-22T21:14:00.490Z,1.70
2022-11-22T21:16:30.651Z,1.80
2022-11-22T21:19:01.091Z,1.80
2022-11-22T21:21:37.057Z,1.70
2022-11-22T21:24:06.815Z,1.80
2022-11-22T21:26:35.477Z,1.80
2022-11-22T21:29:11.547Z,1.80
2022-11-22T21:31:46.333Z,1.80
2022-11-22T21:34:15.525Z,1.80
2022-11-22T21:36:45.340Z,1.80
2022-11-22T21:39:13.678Z,1.80
2022-11-22T21:41:42.720Z,1.80
2022-11-22T21:44:11.850Z,1.70
2022-11-22T21:46:40.003Z,1.70
2022-11-22T21:49:09.901Z,1.60
2022-11-22T21:51:38.173Z,1.60
2022-11-22T21:54:08.007Z,1.50
2022-11-22T21:56:38.425Z,1.50
2022-11-22T21:59:06.592Z,1.50
2022-11-22T22:01:34.921Z,1.50
2022-11-22T22:04:03.932Z,1.50
2022-11-22T22:06:32.650Z,1.50
2022-11-22T22:09:01.230Z,1.50
2022-11-22T22:11:30.786Z,1.50
2022-11-22T22:13:59.206Z,1.40
2022-11-22T22:16:28.251Z,1.50
2022-11-22T22:18:56.541Z,1.50
2022-11-22T22:21:24.707Z,1.40
2022-11-22T22:23:53.427Z,1.40
2022-11-22T22:26:21.735Z,1.40
2022-11-22T22:28:53.255Z,1.40
2022-11-22T22:31:23.396Z,1.30
2022-11-22T22:33:54.257Z,1.30
2022-11-22T22:36:23.249Z,1.20
2022-11-22T22:38:51.483Z,1.20
2022-11-22T22:41:20.673Z,1.30
2022-11-22T22:43:51.105Z,1.20
2022-11-22T22:46:21.838Z,1.20
2022-11-22T22:48:51.107Z,1.20
2022-11-22T22:51:20.934Z,1.10
2022-11-22T22:53:49.681Z,1.10
2022-11-22T22:56:19.531Z,1.10
2022-11-22T22:58:47.938Z,1.10
2022-11-22T23:01:19.008Z,1.10
2022-11-22T23:03:49.219Z,1.10
2022-11-22T23:06:20.275Z,1.00
2022-11-22T23:08:50.051Z,1.00
2022-11-22T23:11:20.328Z,1.00
2022-11-22T23:13:48.570Z,1.00
2022-11-22T23:16:18.026Z,1.00
2022-11-22T23:18:46.555Z,0.90
2022-11-22T23:21:16.232Z,0.90
2022-11-22T23:23:44.436Z,0.90
2022-11-22T23:26:13.635Z,0.90
2022-11-22T23:28:41.860Z,0.90
2022-11-22T23:31:12.797Z,0.90
2022-11-22T23:33:43.203Z,0.90
2022-11-22T23:36:13.228Z,0.90
2022-11-22T23:38:42.266Z,0.80
2022-11-22T23:41:12.585Z,0.80
2022-11-22T23:43:40.933Z,0.80
2022-11-22T23:46:15.797Z,0.80
2022-11-22T23:48:45.698Z,0.80
2022-11-22T23:51:14.398Z,0.90
2022-11-22T23:53:42.724Z,0.90
2022-11-22T23:56:15.074Z,0.90
2022-11-22T23:58:46.093Z,0.80
